Rhayader, United Kingdom
Current Conditions -  °F | °C
As of 11:50 AM on Monday 22 Dec 2014 (Local Time) from EGOS Reporting Station
Overcast Overcast  
Wind Chill: 55°   Ceiling: 1600
Heat Index: 55°   Visibility: 6mi
Dew Point: 48°   Wind: 23mph
Humidity: 77%   Direction: 240°WSW
Pressure: 29.91"   Gusts: 39mph
Location:  52.3°N, 3.51°W
Report Text: EGOS 221150Z AUTO 24020G34KT 9999 OVC016/// 13/09 Q1013
Loading
Personal Weather Stations






























Interactive Weather Map New forecast layout! Learn more

10-Day Weather Forecast

Advertisements
Track Severe Weather on mobile